createdAt,value
2023-04-16T00:00:05.282Z,8.08
2023-04-16T00:02:31.857Z,8.06
2023-04-16T00:04:58.392Z,8.03
2023-04-16T00:07:24.942Z,8.00
2023-04-16T00:09:51.504Z,7.94
2023-04-16T00:12:18.045Z,7.88
2023-04-16T00:14:44.547Z,7.83
2023-04-16T00:17:11.103Z,7.77
2023-04-16T00:19:38.297Z,7.70
2023-04-16T00:22:04.788Z,7.62
2023-04-16T00:24:31.255Z,7.57
2023-04-16T00:26:57.731Z,7.50
2023-04-16T00:29:24.209Z,7.44
2023-04-16T00:31:50.669Z,7.41
2023-04-16T00:34:17.139Z,7.38
2023-04-16T00:36:43.602Z,7.35
2023-04-16T00:39:10.218Z,7.32
2023-04-16T00:41:37.957Z,7.32
2023-04-16T00:44:04.415Z,7.30
2023-04-16T00:46:31.589Z,7.28
2023-04-16T00:49:00.807Z,7.25
2023-04-16T00:51:27.371Z,7.24
2023-04-16T00:53:53.912Z,7.22
2023-04-16T00:56:22.289Z,7.20
2023-04-16T00:58:49.349Z,7.19
2023-04-16T01:01:15.904Z,7.16
2023-04-16T01:03:48.277Z,7.15
2023-04-16T01:06:17.388Z,7.11
2023-04-16T01:08:44.809Z,7.07
2023-04-16T01:11:11.644Z,7.03
2023-04-16T01:13:38.165Z,7.00
2023-04-16T01:16:06.766Z,6.97
2023-04-16T01:18:33.779Z,6.92
2023-04-16T01:21:00.526Z,6.89
2023-04-16T01:23:27.039Z,6.85
2023-04-16T01:25:53.578Z,6.84
2023-04-16T01:28:20.141Z,6.83
2023-04-16T01:30:46.639Z,6.80
2023-04-16T01:33:14.040Z,6.78
2023-04-16T01:35:40.800Z,6.77
2023-04-16T01:38:08.654Z,6.79
2023-04-16T01:40:36.319Z,6.81
2023-04-16T01:43:03.046Z,6.79
2023-04-16T01:45:31.741Z,6.77
2023-04-16T01:47:58.456Z,6.75
2023-04-16T01:50:25.073Z,6.69
2023-04-16T01:52:51.652Z,6.63
2023-04-16T01:55:18.370Z,6.56
2023-04-16T01:57:44.948Z,6.51
2023-04-16T02:00:11.641Z,6.50
2023-04-16T02:02:38.340Z,6.51
2023-04-16T02:05:05.335Z,6.52
2023-04-16T02:07:31.888Z,6.53
2023-04-16T02:09:58.381Z,6.54
2023-04-16T02:12:25.342Z,6.56
2023-04-16T02:14:51.788Z,6.55
2023-04-16T02:17:18.349Z,6.53
2023-04-16T02:19:44.854Z,6.52
2023-04-16T02:22:11.321Z,6.50
2023-04-16T02:24:37.773Z,6.48
2023-04-16T02:27:04.249Z,6.44
2023-04-16T02:29:30.733Z,6.40
2023-04-16T02:31:57.319Z,6.37
2023-04-16T02:34:23.772Z,6.35
2023-04-16T02:36:50.258Z,6.32
2023-04-16T02:39:16.728Z,6.29
2023-04-16T02:41:43.199Z,6.24
2023-04-16T02:44:09.682Z,6.22
2023-04-16T02:46:36.192Z,6.18
2023-04-16T02:49:02.686Z,6.13
2023-04-16T02:51:29.155Z,6.09
2023-04-16T02:53:55.656Z,6.08
2023-04-16T02:56:22.096Z,6.06
2023-04-16T02:58:48.609Z,6.02
2023-04-16T03:01:15.144Z,5.98
2023-04-16T03:03:41.642Z,5.96
2023-04-16T03:06:08.103Z,5.95
2023-04-16T03:08:34.570Z,5.92
2023-04-16T03:11:01.028Z,5.88
2023-04-16T03:13:27.492Z,5.84
2023-04-16T03:15:54.014Z,5.80
2023-04-16T03:18:20.510Z,5.78
2023-04-16T03:20:51.759Z,5.79
2023-04-16T03:23:18.212Z,5.80
2023-04-16T03:25:45.261Z,5.79
2023-04-16T03:28:11.716Z,5.77
2023-04-16T03:30:38.196Z,5.76
2023-04-16T03:33:04.692Z,5.76
2023-04-16T03:35:31.158Z,5.77
2023-04-16T03:37:57.629Z,5.77
2023-04-16T03:40:24.090Z,5.78
2023-04-16T03:42:50.612Z,5.82
2023-04-16T03:45:17.252Z,5.86
2023-04-16T03:47:43.727Z,5.88
2023-04-16T03:50:10.627Z,5.89
2023-04-16T03:52:37.139Z,5.90
2023-04-16T03:55:04.033Z,5.91
2023-04-16T03:57:30.527Z,5.94
2023-04-16T03:59:56.973Z,5.97
2023-04-16T04:02:23.561Z,5.99
2023-04-16T04:04:50.155Z,6.02
2023-04-16T04:07:16.662Z,6.06
2023-04-16T04:09:43.179Z,6.10
2023-04-16T04:12:09.864Z,6.16
2023-04-16T04:14:36.320Z,6.22
2023-04-16T04:17:02.814Z,6.28
2023-04-16T04:19:29.290Z,6.31
2023-04-16T04:21:55.745Z,6.32
2023-04-16T04:24:22.190Z,6.34
2023-04-16T04:26:48.713Z,6.37
2023-04-16T04:29:15.251Z,6.43
2023-04-16T04:31:41.881Z,6.47
2023-04-16T04:34:08.433Z,6.49
2023-04-16T04:36:34.906Z,6.47
2023-04-16T04:39:01.496Z,6.46
2023-04-16T04:41:28.042Z,6.47
2023-04-16T04:43:54.512Z,6.52
2023-04-16T04:46:21.189Z,6.56
2023-04-16T04:48:47.726Z,6.60
2023-04-16T04:51:14.229Z,6.64
2023-04-16T04:53:40.720Z,6.66
2023-04-16T04:56:12.357Z,6.67
2023-04-16T04:58:40.590Z,6.69
2023-04-16T05:01:07.142Z,6.72
2023-04-16T05:03:33.805Z,6.73
2023-04-16T05:06:00.301Z,6.73
2023-04-16T05:08:26.757Z,6.73
2023-04-16T05:10:53.186Z,6.73
2023-04-16T05:13:19.674Z,6.74
2023-04-16T05:15:46.224Z,6.77
2023-04-16T05:18:12.699Z,6.84
2023-04-16T05:20:39.167Z,6.89
2023-04-16T05:23:05.761Z,6.95
2023-04-16T05:25:32.234Z,7.03
2023-04-16T05:27:58.716Z,7.13
2023-04-16T05:30:25.177Z,7.24
2023-04-16T05:32:51.723Z,7.30
2023-04-16T05:35:18.240Z,7.36
2023-04-16T05:37:44.727Z,7.42
2023-04-16T05:40:13.550Z,7.48
2023-04-16T05:42:40.053Z,7.56
2023-04-16T05:45:07.028Z,7.65
2023-04-16T05:47:33.514Z,7.76
2023-04-16T05:49:59.983Z,7.83
2023-04-16T05:52:26.406Z,7.90
2023-04-16T05:54:52.915Z,7.95
2023-04-16T05:57:19.383Z,7.98
2023-04-16T05:59:45.845Z,8.02
2023-04-16T06:02:12.520Z,8.06
2023-04-16T06:04:39.054Z,8.10
2023-04-16T06:07:05.545Z,8.17
2023-04-16T06:09:32.002Z,8.23
2023-04-16T06:11:58.610Z,8.31
2023-04-16T06:14:25.168Z,8.43
2023-04-16T06:16:51.690Z,8.55
2023-04-16T06:19:18.173Z,8.68
2023-04-16T06:21:44.732Z,8.75
2023-04-16T06:24:11.260Z,8.80
2023-04-16T06:26:37.740Z,8.87
2023-04-16T06:29:04.476Z,8.94
2023-04-16T06:31:31.152Z,8.99
2023-04-16T06:33:57.670Z,9.10
2023-04-16T06:36:24.215Z,9.22
2023-04-16T06:38:50.691Z,9.36
2023-04-16T06:41:17.202Z,9.52
2023-04-16T06:43:44.105Z,9.69
2023-04-16T06:46:10.625Z,9.86
2023-04-16T06:48:37.112Z,9.97
2023-04-16T06:51:04.103Z,10.09
2023-04-16T06:53:30.641Z,10.23
2023-04-16T06:55:57.121Z,10.41
2023-04-16T06:58:23.670Z,10.57
2023-04-16T07:00:50.325Z,10.71
2023-04-16T07:03:16.947Z,10.81
2023-04-16T07:05:43.534Z,10.92
2023-04-16T07:08:10.247Z,11.02
2023-04-16T07:10:36.769Z,11.08
2023-04-16T07:13:03.301Z,11.14
2023-04-16T07:15:29.839Z,11.21
2023-04-16T07:17:56.421Z,11.29
2023-04-16T07:20:22.894Z,11.29
2023-04-16T07:22:49.496Z,11.25
2023-04-16T07:25:16.043Z,11.19
2023-04-16T07:27:42.616Z,11.14
2023-04-16T07:30:10.245Z,11.17
2023-04-16T07:32:36.866Z,11.23
2023-04-16T07:35:03.390Z,11.37
2023-04-16T07:37:29.886Z,11.47
2023-04-16T07:39:57.387Z,11.57
2023-04-16T07:42:23.997Z,11.70
2023-04-16T07:44:50.454Z,11.88
2023-04-16T07:47:16.953Z,12.06
2023-04-16T07:49:43.476Z,12.19
2023-04-16T07:52:10.022Z,12.35
2023-04-16T07:54:36.515Z,12.52
2023-04-16T07:57:03.103Z,12.67
2023-04-16T07:59:29.801Z,12.72
2023-04-16T08:01:56.756Z,12.78
2023-04-16T08:04:23.555Z,12.92
2023-04-16T08:06:51.193Z,13.05
2023-04-16T08:09:19.546Z,13.25
2023-04-16T08:11:46.159Z,13.44
2023-04-16T08:14:12.669Z,13.56
2023-04-16T08:16:39.176Z,13.60
2023-04-16T08:19:05.650Z,13.69
2023-04-16T08:21:33.336Z,13.73
2023-04-16T08:23:59.979Z,13.77
2023-04-16T08:26:26.447Z,13.92
2023-04-16T08:28:52.942Z,14.02
2023-04-16T08:31:19.565Z,14.14
2023-04-16T08:33:46.126Z,14.36
2023-04-16T08:36:12.662Z,14.58
2023-04-16T08:38:39.746Z,14.78
2023-04-16T08:41:09.231Z,14.98
2023-04-16T08:43:38.362Z,15.05
2023-04-16T08:46:08.918Z,15.17
2023-04-16T08:48:37.098Z,15.33
2023-04-16T08:51:03.716Z,15.24
2023-04-16T08:53:43.896Z,15.19
2023-04-16T08:56:11.748Z,15.25
2023-04-16T08:58:40.200Z,15.28
2023-04-16T09:01:08.902Z,15.26
2023-04-16T09:03:36.674Z,15.20
2023-04-16T09:06:04.589Z,15.11
2023-04-16T09:08:32.011Z,14.96
2023-04-16T09:10:59.812Z,14.76
2023-04-16T09:13:26.919Z,14.59
2023-04-16T09:15:54.397Z,14.46
2023-04-16T09:18:20.994Z,14.31
2023-04-16T09:20:49.536Z,14.17
2023-04-16T09:23:16.006Z,14.13
2023-04-16T09:25:42.589Z,14.09
2023-04-16T09:28:12.265Z,14.04
2023-04-16T09:30:38.840Z,13.99
2023-04-16T09:33:33.259Z,13.97
2023-04-16T09:36:01.941Z,14.04
2023-04-16T09:38:46.377Z,14.13
2023-04-16T09:41:13.794Z,14.24
2023-04-16T09:43:40.254Z,14.33
2023-04-16T09:46:08.100Z,14.45
2023-04-16T09:48:35.111Z,14.60
2023-04-16T09:51:01.792Z,14.79
2023-04-16T09:53:30.367Z,15.10
2023-04-16T09:56:01.408Z,15.48
2023-04-16T09:58:28.452Z,15.78
2023-04-16T10:01:10.437Z,16.14
2023-04-16T10:03:38.912Z,16.54
2023-04-16T10:06:14.888Z,16.99
2023-04-16T10:08:47.879Z,17.42
2023-04-16T10:11:17.813Z,17.83
2023-04-16T10:13:44.379Z,18.24
2023-04-16T10:16:11.395Z,18.50
2023-04-16T10:18:43.596Z,18.78
2023-04-16T10:21:10.356Z,19.15
2023-04-16T10:23:38.303Z,19.52
2023-04-16T10:26:05.353Z,20.00
2023-04-16T10:28:32.330Z,20.78
2023-04-16T10:31:01.157Z,21.53
2023-04-16T10:33:30.193Z,22.51
2023-04-16T10:36:22.682Z,23.86
2023-04-16T10:38:56.765Z,24.94
2023-04-16T10:41:23.355Z,25.57
2023-04-16T10:43:50.952Z,25.50
2023-04-16T10:46:41.705Z,25.22
2023-04-16T10:49:19.705Z,25.12
2023-04-16T10:51:57.449Z,25.45
2023-04-16T10:54:29.133Z,26.04
2023-04-16T10:57:04.271Z,27.40
2023-04-16T10:59:32.919Z,28.87
2023-04-16T11:02:01.105Z,29.92
2023-04-16T11:04:30.167Z,30.59
2023-04-16T11:07:03.809Z,30.88
2023-04-16T11:10:03.465Z,31.02
2023-04-16T11:12:29.941Z,30.94
2023-04-16T11:15:05.361Z,30.52
2023-04-16T11:17:44.221Z,30.19
2023-04-16T11:20:18.062Z,29.85
2023-04-16T11:22:47.679Z,29.65
2023-04-16T11:25:19.885Z,29.09
2023-04-16T11:27:46.353Z,28.32
2023-04-16T11:30:13.161Z,27.32
2023-04-16T11:32:40.101Z,26.47
2023-04-16T11:35:25.148Z,25.53
2023-04-16T11:37:56.407Z,24.69
2023-04-16T11:40:23.400Z,24.12
2023-04-16T11:42:49.895Z,23.68
2023-04-16T11:45:16.417Z,23.22
2023-04-16T11:47:51.019Z,22.78
2023-04-16T11:50:22.214Z,22.43
2023-04-16T11:52:49.972Z,22.12
2023-04-16T11:55:16.587Z,21.90
2023-04-16T11:57:43.159Z,21.71
2023-04-16T12:00:10.648Z,21.57
2023-04-16T12:02:42.729Z,21.47
2023-04-16T12:05:27.370Z,21.38
2023-04-16T12:07:54.094Z,21.32
2023-04-16T12:10:20.736Z,21.27
2023-04-16T12:12:47.310Z,21.15
2023-04-16T12:15:13.853Z,20.99
2023-04-16T12:17:40.428Z,20.87
2023-04-16T12:20:12.088Z,20.83
2023-04-16T12:22:40.523Z,20.80
2023-04-16T12:25:33.282Z,20.77
2023-04-16T12:27:59.815Z,20.72
2023-04-16T12:30:27.086Z,20.66
2023-04-16T12:33:16.994Z,20.61
2023-04-16T12:35:43.535Z,20.62
2023-04-16T12:38:10.623Z,20.62
2023-04-16T12:40:37.730Z,20.58
2023-04-16T12:43:04.334Z,20.60
2023-04-16T12:45:30.840Z,20.61
2023-04-16T12:47:57.433Z,20.62
2023-04-16T12:50:24.137Z,20.68
2023-04-16T12:52:50.653Z,20.71
2023-04-16T12:55:17.335Z,20.71
2023-04-16T12:57:44.749Z,20.76
2023-04-16T13:00:11.756Z,20.76
2023-04-16T13:02:38.362Z,20.74
2023-04-16T13:05:05.152Z,20.75
2023-04-16T13:07:31.664Z,20.79
2023-04-16T13:09:58.161Z,20.82
2023-04-16T13:12:24.692Z,20.87
2023-04-16T13:14:51.146Z,20.86
2023-04-16T13:17:17.640Z,20.78
2023-04-16T13:19:44.123Z,20.64
2023-04-16T13:22:10.589Z,20.55
2023-04-16T13:24:37.242Z,20.47
2023-04-16T13:27:03.789Z,20.40
2023-04-16T13:29:30.428Z,20.37
2023-04-16T13:31:57.737Z,20.35
2023-04-16T13:34:24.248Z,20.32
2023-04-16T13:36:50.768Z,20.29
2023-04-16T13:39:17.278Z,20.30
2023-04-16T13:41:43.801Z,20.30
2023-04-16T13:44:10.289Z,20.30
2023-04-16T13:46:36.876Z,20.29
2023-04-16T13:49:03.426Z,20.31
2023-04-16T13:51:29.936Z,20.29
2023-04-16T13:53:56.444Z,20.20
2023-04-16T13:56:23.135Z,20.00
2023-04-16T13:58:49.764Z,19.86
2023-04-16T14:01:16.402Z,19.85
2023-04-16T14:03:43.035Z,19.83
2023-04-16T14:06:09.659Z,19.79
2023-04-16T14:08:36.229Z,19.75
2023-04-16T14:11:02.739Z,19.66
2023-04-16T14:13:29.267Z,19.54
2023-04-16T14:15:55.849Z,19.39
2023-04-16T14:18:22.504Z,19.28
2023-04-16T14:20:48.940Z,19.19
2023-04-16T14:23:15.440Z,19.09
2023-04-16T14:25:42.057Z,18.96
2023-04-16T14:28:08.557Z,18.85
2023-04-16T14:30:35.027Z,18.79
2023-04-16T14:33:01.583Z,18.79
2023-04-16T14:35:28.399Z,18.92
2023-04-16T14:37:55.797Z,19.09
2023-04-16T14:40:22.292Z,19.31
2023-04-16T14:42:48.778Z,19.62
2023-04-16T14:45:15.278Z,19.91
2023-04-16T14:47:41.805Z,20.26
2023-04-16T14:50:08.738Z,20.53
2023-04-16T14:52:35.195Z,20.62
2023-04-16T14:55:01.676Z,20.66
2023-04-16T14:57:28.175Z,20.68
2023-04-16T14:59:54.645Z,20.66
2023-04-16T15:02:21.363Z,20.63
2023-04-16T15:04:48.026Z,20.56
2023-04-16T15:07:14.505Z,20.53
2023-04-16T15:09:41.000Z,20.64
2023-04-16T15:12:07.517Z,20.78
2023-04-16T15:14:34.213Z,20.88
2023-04-16T15:17:00.925Z,21.00
2023-04-16T15:19:27.556Z,21.14
2023-04-16T15:21:54.067Z,21.20
2023-04-16T15:24:20.560Z,21.28
2023-04-16T15:26:47.091Z,21.38
2023-04-16T15:29:13.605Z,21.49
2023-04-16T15:31:40.164Z,21.73
2023-04-16T15:34:06.816Z,22.20
2023-04-16T15:36:33.351Z,22.69
2023-04-16T15:38:59.814Z,22.98
2023-04-16T15:41:29.035Z,22.98
2023-04-16T15:43:55.538Z,22.93
2023-04-16T15:46:22.191Z,22.89
2023-04-16T15:48:48.662Z,22.85
2023-04-16T15:51:15.468Z,22.69
2023-04-16T15:53:42.038Z,22.64
2023-04-16T15:56:08.587Z,22.61
2023-04-16T15:58:35.060Z,22.43
2023-04-16T16:01:01.518Z,22.12
2023-04-16T16:03:28.110Z,21.75
2023-04-16T16:05:54.737Z,21.48
2023-04-16T16:08:21.285Z,21.25
2023-04-16T16:10:47.782Z,20.97
2023-04-16T16:13:14.281Z,20.62
2023-04-16T16:15:40.856Z,20.29
2023-04-16T16:18:07.624Z,19.99
2023-04-16T16:20:34.235Z,19.65
2023-04-16T16:23:00.921Z,19.35
2023-04-16T16:25:27.467Z,19.17
2023-04-16T16:27:53.988Z,18.99
2023-04-16T16:30:20.472Z,18.74
2023-04-16T16:32:47.022Z,18.53
2023-04-16T16:35:13.594Z,18.35
2023-04-16T16:37:40.092Z,18.14
2023-04-16T16:40:07.054Z,17.98
2023-04-16T16:42:33.594Z,17.85
2023-04-16T16:45:00.245Z,17.72
2023-04-16T16:47:26.756Z,17.60
2023-04-16T16:49:53.325Z,17.47
2023-04-16T16:52:22.890Z,17.38
2023-04-16T16:54:49.491Z,17.32
2023-04-16T16:57:18.050Z,17.27
2023-04-16T16:59:44.586Z,17.20
2023-04-16T17:02:11.201Z,17.12
2023-04-16T17:04:37.877Z,17.05
2023-04-16T17:07:04.451Z,16.93
2023-04-16T17:09:30.935Z,16.85
2023-04-16T17:11:57.429Z,16.80
2023-04-16T17:14:24.229Z,16.74
2023-04-16T17:16:50.858Z,16.69
2023-04-16T17:19:17.439Z,16.67
2023-04-16T17:21:44.368Z,16.63
2023-04-16T17:24:11.006Z,16.61
2023-04-16T17:26:37.704Z,16.59
2023-04-16T17:29:04.179Z,16.56
2023-04-16T17:31:30.690Z,16.51
2023-04-16T17:33:57.163Z,16.47
2023-04-16T17:36:23.662Z,16.39
2023-04-16T17:38:50.123Z,16.36
2023-04-16T17:41:16.583Z,16.30
2023-04-16T17:43:43.181Z,16.23
2023-04-16T17:46:12.757Z,16.16
2023-04-16T17:48:39.308Z,16.11
2023-04-16T17:51:13.366Z,16.04
2023-04-16T17:53:39.893Z,15.98
2023-04-16T17:56:06.780Z,15.93
2023-04-16T17:58:33.282Z,15.87
2023-04-16T18:00:59.814Z,15.82
2023-04-16T18:03:26.490Z,15.75
2023-04-16T18:05:53.097Z,15.67
2023-04-16T18:08:19.563Z,15.62
2023-04-16T18:10:46.052Z,15.55
2023-04-16T18:13:12.568Z,15.47
2023-04-16T18:15:39.120Z,15.38
2023-04-16T18:18:06.013Z,15.31
2023-04-16T18:20:32.529Z,15.24
2023-04-16T18:22:59.034Z,15.18
2023-04-16T18:25:33.953Z,15.11
2023-04-16T18:28:02.078Z,15.03
2023-04-16T18:30:28.727Z,14.96
2023-04-16T18:33:21.434Z,14.91
2023-04-16T18:35:41.700Z,14.83
2023-04-16T18:38:08.279Z,14.75
2023-04-16T18:40:36.011Z,14.71
2023-04-16T18:43:05.565Z,14.66
2023-04-16T18:48:00.070Z,14.53
2023-04-16T18:50:26.597Z,14.49
2023-04-16T18:52:53.158Z,14.49
2023-04-16T18:55:19.646Z,14.46
2023-04-16T18:57:46.186Z,14.44
2023-04-16T19:00:13.157Z,14.41
2023-04-16T19:02:40.331Z,14.40
2023-04-16T19:05:07.868Z,14.38
2023-04-16T19:07:34.487Z,14.37
2023-04-16T19:10:01.360Z,14.36
2023-04-16T19:12:28.705Z,14.34
2023-04-16T19:14:55.269Z,14.32
2023-04-16T19:17:21.889Z,14.29
2023-04-16T19:19:48.555Z,14.24
2023-04-16T19:22:15.016Z,14.19
2023-04-16T19:24:41.526Z,14.15
2023-04-16T19:27:08.060Z,14.12
2023-04-16T19:29:35.143Z,14.09
2023-04-16T19:32:02.363Z,14.04
2023-04-16T19:34:29.067Z,14.01
2023-04-16T19:36:55.516Z,13.98
2023-04-16T19:39:23.233Z,13.95
2023-04-16T19:41:49.747Z,13.92
2023-04-16T19:44:16.273Z,13.88
2023-04-16T19:46:42.899Z,13.85
2023-04-16T19:49:09.712Z,13.81
2023-04-16T19:51:36.566Z,13.77
2023-04-16T19:54:03.039Z,13.71
2023-04-16T19:56:29.497Z,13.68
2023-04-16T19:58:55.981Z,13.65
2023-04-16T20:01:22.668Z,13.63
2023-04-16T20:03:49.327Z,13.60
2023-04-16T20:06:16.243Z,13.58
2023-04-16T20:08:42.942Z,13.56
2023-04-16T20:11:09.942Z,13.56
2023-04-16T20:13:36.393Z,13.55
2023-04-16T20:16:03.393Z,13.54
2023-04-16T20:18:30.035Z,13.53
2023-04-16T20:20:56.534Z,13.52
2023-04-16T20:23:23.079Z,13.52
2023-04-16T20:25:49.631Z,13.51
2023-04-16T20:28:16.167Z,13.49
2023-04-16T20:30:42.745Z,13.50
2023-04-16T20:33:09.379Z,13.49
2023-04-16T20:35:36.268Z,13.49
2023-04-16T20:38:02.750Z,13.49
2023-04-16T20:40:29.423Z,13.49
2023-04-16T20:42:57.521Z,13.49
2023-04-16T20:45:24.054Z,13.48
2023-04-16T20:47:50.533Z,13.45
2023-04-16T20:50:17.116Z,13.44
2023-04-16T20:52:43.626Z,13.41
2023-04-16T20:55:10.175Z,13.39
2023-04-16T20:57:36.643Z,13.39
2023-04-16T21:00:03.306Z,13.37
2023-04-16T21:02:29.988Z,13.38
2023-04-16T21:04:56.637Z,13.40
2023-04-16T21:07:23.109Z,13.41
2023-04-16T21:09:49.683Z,13.40
2023-04-16T21:12:16.134Z,13.37
2023-04-16T21:14:42.609Z,13.34
2023-04-16T21:17:09.077Z,13.32
2023-04-16T21:19:35.677Z,13.30
2023-04-16T21:22:02.271Z,13.30
2023-04-16T21:24:29.021Z,13.31
2023-04-16T21:26:55.521Z,13.33
2023-04-16T21:29:22.057Z,13.34
2023-04-16T21:31:48.609Z,13.34
2023-04-16T21:34:15.220Z,13.33
2023-04-16T21:36:41.755Z,13.31
2023-04-16T21:39:08.211Z,13.30
2023-04-16T21:41:34.742Z,13.28
2023-04-16T21:44:01.204Z,13.27
2023-04-16T21:46:27.703Z,13.25
2023-04-16T21:48:54.197Z,13.23
2023-04-16T21:51:20.718Z,13.22
2023-04-16T21:53:47.200Z,13.20
2023-04-16T21:56:13.699Z,13.18
2023-04-16T21:58:40.207Z,13.14
2023-04-16T22:01:08.918Z,13.09
2023-04-16T22:03:37.039Z,13.06
2023-04-16T22:06:03.812Z,13.03
2023-04-16T22:08:30.537Z,13.01
2023-04-16T22:10:58.639Z,13.00
2023-04-16T22:13:25.780Z,12.98
2023-04-16T22:15:53.195Z,12.95
2023-04-16T22:18:19.675Z,12.93
2023-04-16T22:20:46.329Z,12.93
2023-04-16T22:23:13.601Z,12.90
2023-04-16T22:25:40.084Z,12.88
2023-04-16T22:28:06.623Z,12.87
2023-04-16T22:30:33.156Z,12.85
2023-04-16T22:32:59.747Z,12.83
2023-04-16T22:35:26.260Z,12.82
2023-04-16T22:37:52.724Z,12.80
2023-04-16T22:40:19.176Z,12.78
2023-04-16T22:42:45.662Z,12.76
2023-04-16T22:45:12.137Z,12.74
2023-04-16T22:47:38.905Z,12.72
2023-04-16T22:50:06.128Z,12.70
2023-04-16T22:52:32.612Z,12.69
2023-04-16T22:54:59.110Z,12.67
2023-04-16T22:57:25.714Z,12.65
2023-04-16T22:59:52.722Z,12.64
2023-04-16T23:02:20.444Z,12.65
2023-04-16T23:04:47.251Z,12.65
2023-04-16T23:07:14.644Z,12.64
2023-04-16T23:09:41.152Z,12.64
2023-04-16T23:12:07.994Z,12.63
2023-04-16T23:14:34.617Z,12.64
2023-04-16T23:17:01.090Z,12.63
2023-04-16T23:19:27.564Z,12.62
2023-04-16T23:21:53.996Z,12.62
2023-04-16T23:24:20.500Z,12.61
2023-04-16T23:26:47.006Z,12.61
2023-04-16T23:29:13.629Z,12.61
2023-04-16T23:31:40.307Z,12.61
2023-04-16T23:34:06.796Z,12.61
2023-04-16T23:36:33.307Z,12.60
2023-04-16T23:38:59.743Z,12.60
2023-04-16T23:41:26.222Z,12.61
2023-04-16T23:43:52.720Z,12.61
2023-04-16T23:46:19.192Z,12.62
2023-04-16T23:48:45.664Z,12.63
2023-04-16T23:51:12.139Z,12.64
2023-04-16T23:53:38.585Z,12.65
2023-04-16T23:56:05.372Z,12.66
2023-04-16T23:58:31.912Z,12.67
